Time;durP1;ratioP1;P1;durP2;ratioP2;P2;SDS_P1;SDS_P2;PMS_P1;PMS_P2;Temp;Humidity;BMP_temperature;BMP_pressure;BME280_temperature;BME280_humidity;BME280_pressure;Samples;Min_cycle;Max_cycle;Signal;HPM_P1;HPM_P2
2021/05/24 00:01:46;;;;;;;;;;;9.40;82.90;;;;;;5051931;28;19916;-67
2021/05/24 00:04:12;;;;;;;;;;;9.40;83.00;;;;;;5050798;28;20288;-67
2021/05/24 00:06:37;;;;;;;;;;;9.40;82.80;;;;;;5052030;28;19923;-67
2021/05/24 00:09:03;;;;;;;;;;;9.40;82.80;;;;;;5051414;28;20423;-67
2021/05/24 00:11:30;;;;;;;;;;;9.40;82.80;;;;;;5050102;28;19936;-67
2021/05/24 00:13:56;;;;;;;;;;;9.40;82.80;;;;;;5033224;28;19917;-67
2021/05/24 00:16:23;;;;;;;;;;;9.30;82.80;;;;;;5051132;28;20290;-67
2021/05/24 00:18:53;;;;;;;;;;;9.20;82.90;;;;;;5051534;28;19921;-67
2021/05/24 00:21:19;;;;;;;;;;;9.20;83.00;;;;;;5050875;28;20543;-67
2021/05/24 00:23:45;;;;;;;;;;;9.30;83.30;;;;;;5049591;28;19921;-67
2021/05/24 00:26:11;;;;;;;;;;;9.30;83.40;;;;;;5050460;28;20391;-67
2021/05/24 00:28:37;;;;;;;;;;;9.30;83.30;;;;;;5051245;28;19939;-67
2021/05/24 00:31:02;;;;;;;;;;;9.40;83.40;;;;;;5050822;28;19916;-67
2021/05/24 00:33:28;;;;;;;;;;;9.40;83.30;;;;;;5050978;28;19955;-67
2021/05/24 00:35:54;;;;;;;;;;;9.40;83.20;;;;;;5033280;28;19963;-67
2021/05/24 00:38:19;;;;;;;;;;;9.40;83.30;;;;;;5051376;28;19924;-67
2021/05/24 00:40:45;;;;;;;;;;;9.40;83.30;;;;;;5050540;28;20356;-67
2021/05/24 00:43:10;;;;;;;;;;;9.40;83.40;;;;;;5050732;28;19921;-67
2021/05/24 00:45:36;;;;;;;;;;;9.50;83.40;;;;;;5051456;28;19924;-66
2021/05/24 00:48:02;;;;;;;;;;;9.50;83.30;;;;;;5050940;28;19921;-67
2021/05/24 00:50:28;;;;;;;;;;;9.50;83.30;;;;;;5051079;28;19931;-67
2021/05/24 00:52:53;;;;;;;;;;;9.50;83.30;;;;;;5050556;28;19917;-67
2021/05/24 00:55:19;;;;;;;;;;;9.60;83.40;;;;;;5050782;28;19917;-66
2021/05/24 00:57:45;;;;;;;;;;;9.60;83.30;;;;;;5050856;28;20381;-66
2021/05/24 01:00:14;;;;;;;;;;;9.60;83.30;;;;;;5050465;28;19940;-67
2021/05/24 01:02:39;;;;;;;;;;;9.60;83.10;;;;;;5051068;28;19917;-67
2021/05/24 01:05:06;;;;;;;;;;;9.70;83.20;;;;;;5049503;28;20316;-66
2021/05/24 01:07:31;;;;;;;;;;;9.70;83.20;;;;;;5050812;28;19923;-67
2021/05/24 01:09:57;;;;;;;;;;;9.70;83.20;;;;;;5049200;28;20293;-67
2021/05/24 01:12:23;;;;;;;;;;;9.70;83.10;;;;;;5050766;28;19932;-67
2021/05/24 01:14:48;;;;;;;;;;;9.70;83.20;;;;;;5050303;28;19924;-67
2021/05/24 01:17:14;;;;;;;;;;;9.70;83.20;;;;;;5049745;28;19967;-67
2021/05/24 01:19:46;;;;;;;;;;;9.70;83.10;;;;;;5048642;28;19921;-67
2021/05/24 01:22:16;;;;;;;;;;;9.70;83.10;;;;;;5051092;28;19917;-67
2021/05/24 01:24:42;;;;;;;;;;;9.80;83.10;;;;;;5052851;28;19917;-67
2021/05/24 01:27:07;;;;;;;;;;;9.80;83.10;;;;;;5054331;28;19960;-67
2021/05/24 01:29:33;;;;;;;;;;;9.80;83.10;;;;;;5054187;28;19931;-66
2021/05/24 01:31:58;;;;;;;;;;;9.70;83.50;;;;;;5054246;28;20309;-67
2021/05/24 01:34:24;;;;;;;;;;;9.70;83.00;;;;;;5053881;28;19963;-66
2021/05/24 01:36:50;;;;;;;;;;;9.80;83.00;;;;;;5053280;28;19917;-67
2021/05/24 01:39:19;;;;;;;;;;;9.80;83.00;;;;;;5052697;28;19960;-67
2021/05/24 01:41:45;;;;;;;;;;;9.80;83.10;;;;;;5054368;28;19924;-67
2021/05/24 01:44:11;;;;;;;;;;;9.80;83.00;;;;;;5053209;28;19938;-67
2021/05/24 01:46:36;;;;;;;;;;;9.80;83.00;;;;;;5053177;28;19917;-67
2021/05/24 01:49:02;;;;;;;;;;;9.70;82.90;;;;;;5054161;28;19920;-66
2021/05/24 01:51:28;;;;;;;;;;;9.80;82.90;;;;;;5053476;28;19917;-66
2021/05/24 01:53:53;;;;;;;;;;;9.70;82.80;;;;;;5053635;28;20397;-66
2021/05/24 01:56:19;;;;;;;;;;;9.80;82.80;;;;;;5053071;28;19932;-66
2021/05/24 01:58:44;;;;;;;;;;;9.70;82.70;;;;;;5052420;28;19927;-67
2021/05/24 02:01:10;;;;;;;;;;;9.70;82.70;;;;;;5053587;28;20000;-67
2021/05/24 02:03:37;;;;;;;;;;;9.70;82.70;;;;;;5052942;28;19917;-66
2021/05/24 02:06:03;;;;;;;;;;;9.70;82.70;;;;;;5054130;28;19931;-67
2021/05/24 02:08:29;;;;;;;;;;;9.70;82.70;;;;;;5053861;28;19921;-66
2021/05/24 02:10:54;;;;;;;;;;;9.70;82.70;;;;;;5052812;28;20339;-67
2021/05/24 02:13:20;;;;;;;;;;;9.70;82.80;;;;;;5052961;28;19939;-66
2021/05/24 02:15:46;;;;;;;;;;;9.70;82.80;;;;;;5054604;28;19916;-67
2021/05/24 02:18:11;;;;;;;;;;;9.70;82.70;;;;;;5054921;28;19951;-67
2021/05/24 02:20:37;;;;;;;;;;;9.70;83.20;;;;;;5053725;28;19917;-67
2021/05/24 02:23:03;;;;;;;;;;;9.60;82.60;;;;;;5054572;28;19917;-67
2021/05/24 02:25:29;;;;;;;;;;;9.70;82.60;;;;;;5053472;28;19917;-67
2021/05/24 02:27:55;;;;;;;;;;;9.70;82.60;;;;;;5050270;28;19928;-67
2021/05/24 02:30:21;;;;;;;;;;;9.70;82.50;;;;;;5052974;28;19923;-66
2021/05/24 02:32:47;;;;;;;;;;;9.60;82.40;;;;;;5050415;28;20022;-67
2021/05/24 02:35:13;;;;;;;;;;;9.70;82.40;;;;;;5051742;28;20448;-67
2021/05/24 02:37:40;;;;;;;;;;;9.60;82.30;;;;;;5052093;28;19929;-67
2021/05/24 02:40:07;;;;;;;;;;;9.60;82.40;;;;;;5052131;28;19916;-67
2021/05/24 02:42:33;;;;;;;;;;;9.60;82.40;;;;;;5051603;28;20270;-67
2021/05/24 02:44:59;;;;;;;;;;;9.60;82.20;;;;;;5052761;28;20285;-66
2021/05/24 02:47:24;;;;;;;;;;;9.60;82.10;;;;;;5052104;28;19921;-66
2021/05/24 02:49:50;;;;;;;;;;;9.70;82.10;;;;;;5052725;28;19932;-66
2021/05/24 02:52:15;;;;;;;;;;;9.70;82.10;;;;;;5053122;28;20372;-67
2021/05/24 02:54:41;;;;;;;;;;;9.60;82.00;;;;;;5033742;28;19917;-67
2021/05/24 02:57:06;;;;;;;;;;;9.60;82.00;;;;;;5052964;28;20377;-67
2021/05/24 02:59:32;;;;;;;;;;;9.60;82.00;;;;;;5051842;28;20274;-66
2021/05/24 03:02:01;;;;;;;;;;;9.70;82.00;;;;;;5052622;28;19917;-66
2021/05/24 03:04:28;;;;;;;;;;;9.60;81.80;;;;;;5050915;28;19940;-66
2021/05/24 03:06:54;;;;;;;;;;;9.70;81.90;;;;;;5052605;28;20392;-66
2021/05/24 03:09:19;;;;;;;;;;;9.60;81.80;;;;;;5052651;28;19917;-66
2021/05/24 03:11:45;;;;;;;;;;;9.70;81.80;;;;;;5051664;28;20388;-66
2021/05/24 03:14:10;;;;;;;;;;;9.70;81.70;;;;;;5051669;28;20405;-67
2021/05/24 03:16:37;;;;;;;;;;;9.70;81.60;;;;;;5052708;28;19956;-66
2021/05/24 03:19:03;;;;;;;;;;;9.70;81.50;;;;;;5052615;28;19920;-66
2021/05/24 03:21:29;;;;;;;;;;;9.70;81.40;;;;;;5052225;28;20310;-66
2021/05/24 03:23:54;;;;;;;;;;;9.70;81.40;;;;;;5051867;28;19921;-66
2021/05/24 03:26:20;;;;;;;;;;;9.70;81.20;;;;;;5050764;28;19917;-66
2021/05/24 03:28:45;;;;;;;;;;;9.70;81.20;;;;;;5052725;28;19947;-67
2021/05/24 03:31:11;;;;;;;;;;;9.70;81.10;;;;;;5034401;28;19952;-67
2021/05/24 03:33:38;;;;;;;;;;;9.70;81.10;;;;;;5051351;28;20391;-66
2021/05/24 03:36:05;;;;;;;;;;;9.80;81.10;;;;;;5052407;28;19924;-67
2021/05/24 03:38:31;;;;;;;;;;;9.80;81.10;;;;;;5051889;28;19921;-67
2021/05/24 03:40:56;;;;;;;;;;;9.80;81.00;;;;;;5052213;28;19931;-67
2021/05/24 03:43:22;;;;;;;;;;;9.90;80.90;;;;;;5051492;28;20294;-67
2021/05/24 03:45:47;;;;;;;;;;;9.90;80.80;;;;;;5051581;28;19940;-66
2021/05/24 03:48:13;;;;;;;;;;;9.90;80.70;;;;;;5052194;28;19924;-66
2021/05/24 03:50:38;;;;;;;;;;;9.90;80.50;;;;;;5052036;28;19939;-66
2021/05/24 03:53:04;;;;;;;;;;;10.00;80.50;;;;;;5049737;28;19921;-67
2021/05/24 03:55:30;;;;;;;;;;;10.00;80.30;;;;;;5050700;28;19923;-67
2021/05/24 03:57:55;;;;;;;;;;;10.10;80.10;;;;;;5051570;28;20312;-66
2021/05/24 04:00:21;;;;;;;;;;;10.10;79.80;;;;;;5051801;28;19923;-67
2021/05/24 04:02:47;;;;;;;;;;;10.20;79.70;;;;;;5051278;28;19921;-67
2021/05/24 04:05:19;;;;;;;;;;;10.30;79.50;;;;;;5051325;28;19952;-67
2021/05/24 04:07:49;;;;;;;;;;;10.30;79.30;;;;;;5051596;28;20123;-66
2021/05/24 04:10:17;;;;;;;;;;;10.30;79.00;;;;;;5051113;28;19925;-66
2021/05/24 04:12:42;;;;;;;;;;;10.40;78.80;;;;;;5050351;28;19930;-67
2021/05/24 04:15:08;;;;;;;;;;;10.40;78.60;;;;;;5049674;28;20011;-67
2021/05/24 04:17:36;;;;;;;;;;;10.40;78.40;;;;;;5051258;28;19927;-68
2021/05/24 04:20:03;;;;;;;;;;;10.40;78.30;;;;;;5051206;28;19920;-67
2021/05/24 04:22:29;;;;;;;;;;;10.50;78.10;;;;;;5045963;28;19924;-67
2021/05/24 04:24:55;;;;;;;;;;;10.50;77.90;;;;;;5033176;28;19921;-67
2021/05/24 04:27:20;;;;;;;;;;;10.50;77.80;;;;;;5051745;28;19917;-67
2021/05/24 04:29:46;;;;;;;;;;;10.50;77.60;;;;;;5050785;28;19917;-67
2021/05/24 04:32:12;;;;;;;;;;;10.60;77.50;;;;;;5051641;28;19917;-69
2021/05/24 04:34:37;;;;;;;;;;;10.60;77.30;;;;;;5050436;28;19924;-67
2021/05/24 04:37:03;;;;;;;;;;;10.60;77.10;;;;;;5049948;28;19967;-67
2021/05/24 04:39:28;;;;;;;;;;;10.60;77.00;;;;;;5051298;28;20274;-67
2021/05/24 04:41:54;;;;;;;;;;;10.70;76.90;;;;;;5043453;28;19927;-67
2021/05/24 04:44:20;;;;;;;;;;;10.70;76.90;;;;;;5049406;28;19917;-67
2021/05/24 04:46:46;;;;;;;;;;;10.80;76.90;;;;;;5050881;28;19931;-67
2021/05/24 04:49:11;;;;;;;;;;;10.90;76.90;;;;;;5049502;28;19917;-67
2021/05/24 04:51:37;;;;;;;;;;;10.90;76.60;;;;;;5051199;28;19917;-67
2021/05/24 04:54:04;;;;;;;;;;;11.00;76.30;;;;;;5032119;28;20004;-67
2021/05/24 04:56:29;;;;;;;;;;;11.10;76.20;;;;;;5051295;28;19995;-66
2021/05/24 04:58:55;;;;;;;;;;;11.20;76.00;;;;;;5053841;28;20020;-67
2021/05/24 05:01:20;;;;;;;;;;;11.30;75.50;;;;;;5054733;28;19959;-67
2021/05/24 05:03:46;;;;;;;;;;;11.30;75.10;;;;;;5054714;28;20328;-67
2021/05/24 05:06:12;;;;;;;;;;;11.20;74.70;;;;;;5053862;28;19955;-67
2021/05/24 05:08:37;;;;;;;;;;;11.20;74.60;;;;;;5054594;28;19956;-66
2021/05/24 05:11:03;;;;;;;;;;;11.20;74.80;;;;;;5036961;28;19921;-67
2021/05/24 05:13:28;;;;;;;;;;;11.30;75.20;;;;;;5053988;28;20003;-66
2021/05/24 05:15:54;;;;;;;;;;;11.40;75.10;;;;;;5054788;28;19916;-67
2021/05/24 05:18:21;;;;;;;;;;;11.80;75.00;;;;;;5037040;28;19920;-66
2021/05/24 05:20:47;;;;;;;;;;;12.20;74.80;;;;;;5053087;28;20385;-67
2021/05/24 05:23:13;;;;;;;;;;;12.60;74.50;;;;;;5054186;28;19952;-67
2021/05/24 05:25:39;;;;;;;;;;;13.00;74.30;;;;;;5036293;28;19963;-66
2021/05/24 05:28:04;;;;;;;;;;;13.30;73.60;;;;;;5054630;28;19917;-66
2021/05/24 05:30:30;;;;;;;;;;;13.50;72.50;;;;;;5053309;28;19925;-67
2021/05/24 05:32:55;;;;;;;;;;;13.70;72.00;;;;;;5053878;28;19916;-67
2021/05/24 05:35:21;;;;;;;;;;;13.80;71.50;;;;;;5054633;28;20507;-67
2021/05/24 05:37:51;;;;;;;;;;;14.00;71.10;;;;;;5054398;28;19925;-67
2021/05/24 05:40:18;;;;;;;;;;;14.10;70.30;;;;;;5054056;28;19917;-67
2021/05/24 05:42:44;;;;;;;;;;;14.20;70.00;;;;;;5054231;28;20358;-67
2021/05/24 05:45:13;;;;;;;;;;;14.30;69.50;;;;;;5048419;28;20031;-67
2021/05/24 05:47:39;;;;;;;;;;;14.30;68.40;;;;;;5060205;28;20373;-67
2021/05/24 05:50:05;;;;;;;;;;;14.20;68.00;;;;;;5072873;28;19944;-67
2021/05/24 05:52:30;;;;;;;;;;;14.30;68.60;;;;;;5072036;28;19917;-67
2021/05/24 05:54:56;;;;;;;;;;;14.70;70.10;;;;;;5071500;28;20344;-67
2021/05/24 05:57:22;;;;;;;;;;;15.10;69.10;;;;;;5072472;28;19916;-67
2021/05/24 05:59:47;;;;;;;;;;;15.60;69.30;;;;;;5073723;28;19931;-67
2021/05/24 06:02:13;;;;;;;;;;;16.30;69.70;;;;;;5072483;28;19916;-67
2021/05/24 06:04:38;;;;;;;;;;;17.10;69.20;;;;;;5071250;28;19995;-67
2021/05/24 06:07:04;;;;;;;;;;;17.60;66.90;;;;;;5073845;28;19917;-67
2021/05/24 06:09:30;;;;;;;;;;;19.10;68.40;;;;;;5072158;28;19966;-67
2021/05/24 06:11:55;;;;;;;;;;;20.30;66.10;;;;;;5073000;28;19940;-68
2021/05/24 06:14:21;;;;;;;;;;;20.60;60.90;;;;;;5072420;28;19916;-68
2021/05/24 06:16:47;;;;;;;;;;;20.70;59.80;;;;;;5072138;28;19913;-68
2021/05/24 06:19:13;;;;;;;;;;;20.70;58.50;;;;;;5073061;28;19920;-68
2021/05/24 06:21:38;;;;;;;;;;;20.90;57.50;;;;;;5073058;28;19923;-68
2021/05/24 06:24:04;;;;;;;;;;;21.50;57.70;;;;;;5072120;28;19982;-68
2021/05/24 06:26:29;;;;;;;;;;;22.60;56.90;;;;;;5073174;28;20018;-69
2021/05/24 06:28:55;;;;;;;;;;;23.60;56.10;;;;;;5072704;28;19927;-69
2021/05/24 06:31:20;;;;;;;;;;;24.90;53.60;;;;;;5070987;28;19923;-69
2021/05/24 06:33:46;;;;;;;;;;;25.50;50.50;;;;;;5072228;28;19931;-69
2021/05/24 06:36:12;;;;;;;;;;;26.00;49.20;;;;;;5072960;28;19936;-69
2021/05/24 06:38:37;;;;;;;;;;;26.80;49.00;;;;;;5072226;28;19928;-70
2021/05/24 06:41:03;;;;;;;;;;;27.70;47.30;;;;;;5073108;28;19924;-70
2021/05/24 06:43:28;;;;;;;;;;;28.50;45.70;;;;;;5071044;28;20003;-70
2021/05/24 06:45:54;;;;;;;;;;;29.10;43.70;;;;;;5072736;28;20352;-69
2021/05/24 06:48:19;;;;;;;;;;;29.60;43.60;;;;;;5072817;28;19920;-69
2021/05/24 06:50:45;;;;;;;;;;;30.00;39.70;;;;;;5072185;28;19933;-70
2021/05/24 06:53:11;;;;;;;;;;;30.40;39.70;;;;;;5069998;28;20419;-70
2021/05/24 06:55:36;;;;;;;;;;;30.60;37.40;;;;;;5072532;28;19920;-69
2021/05/24 06:58:03;;;;;;;;;;;31.00;37.60;;;;;;5071698;28;19943;-69
2021/05/24 07:00:29;;;;;;;;;;;31.50;36.20;;;;;;5072508;28;20031;-73
2021/05/24 07:02:54;;;;;;;;;;;31.40;33.60;;;;;;5069918;28;19968;-70
2021/05/24 07:05:20;;;;;;;;;;;31.30;33.90;;;;;;5072445;28;19917;-70
2021/05/24 07:07:45;;;;;;;;;;;31.30;32.50;;;;;;5072603;28;19935;-71
2021/05/24 07:10:12;;;;;;;;;;;31.30;32.30;;;;;;5070396;28;20341;-70
2021/05/24 07:12:38;;;;;;;;;;;31.90;32.90;;;;;;5054353;28;19970;-69
2021/05/24 07:15:05;;;;;;;;;;;32.90;32.80;;;;;;5071236;28;19948;-69
2021/05/24 07:17:31;;;;;;;;;;;33.50;31.80;;;;;;5070838;28;19927;-70
2021/05/24 07:19:56;;;;;;;;;;;34.40;31.30;;;;;;5070693;28;19917;-71
2021/05/24 07:22:22;;;;;;;;;;;35.10;30.20;;;;;;5071006;28;19923;-69
2021/05/24 07:24:47;;;;;;;;;;;35.70;29.70;;;;;;5071241;28;19994;-70
2021/05/24 07:27:13;;;;;;;;;;;36.00;28.70;;;;;;5071732;28;19916;-71
2021/05/24 07:29:39;;;;;;;;;;;36.20;28.20;;;;;;5071692;28;20362;-70
2021/05/24 07:32:09;;;;;;;;;;;36.30;27.20;;;;;;5071956;28;20635;-70
2021/05/24 07:34:35;;;;;;;;;;;36.20;27.20;;;;;;5070925;28;19994;-70
2021/05/24 07:37:01;;;;;;;;;;;36.60;27.30;;;;;;5070665;28;20534;-70
2021/05/24 07:39:26;;;;;;;;;;;37.20;27.10;;;;;;5071922;28;19921;-71
2021/05/24 07:41:52;;;;;;;;;;;37.70;26.70;;;;;;5071372;28;19917;-70
2021/05/24 07:44:17;;;;;;;;;;;38.30;26.20;;;;;;5070906;28;19921;-71
2021/05/24 07:46:44;;;;;;;;;;;38.60;25.60;;;;;;5070056;28;19920;-70
2021/05/24 07:49:09;;;;;;;;;;;38.80;25.00;;;;;;5071599;28;20301;-71
2021/05/24 07:51:35;;;;;;;;;;;38.70;24.80;;;;;;5071675;28;19934;-71
2021/05/24 07:54:00;;;;;;;;;;;38.60;24.60;;;;;;5070348;28;19916;-70
2021/05/24 07:56:26;;;;;;;;;;;38.90;24.70;;;;;;5071337;28;19940;-71
2021/05/24 07:58:51;;;;;;;;;;;39.70;24.90;;;;;;5070097;28;20312;-71
2021/05/24 08:01:18;;;;;;;;;;;40.60;24.60;;;;;;5070454;28;21593;-70
2021/05/24 08:03:44;;;;;;;;;;;41.10;23.90;;;;;;5069058;28;19916;-72
2021/05/24 08:06:09;;;;;;;;;;;41.10;23.30;;;;;;5069573;28;19916;-70
2021/05/24 08:08:35;;;;;;;;;;;41.20;23.30;;;;;;5071197;28;20299;-71
2021/05/24 08:11:00;;;;;;;;;;;41.20;23.20;;;;;;5069658;28;19936;-71
2021/05/24 08:13:27;;;;;;;;;;;41.40;22.70;;;;;;5070013;28;19931;-71
2021/05/24 08:15:53;;;;;;;;;;;41.10;22.50;;;;;;5071115;28;19955;-71
2021/05/24 08:18:18;;;;;;;;;;;41.00;22.90;;;;;;5069887;28;19966;-71
2021/05/24 08:20:44;;;;;;;;;;;41.60;22.90;;;;;;5070474;28;19966;-71
2021/05/24 08:23:09;;;;;;;;;;;41.70;22.40;;;;;;5052192;28;19977;-71
2021/05/24 08:25:35;;;;;;;;;;;41.50;22.00;;;;;;5069221;28;19917;-71
2021/05/24 08:28:00;;;;;;;;;;;41.20;22.10;;;;;;5071036;28;19970;-71
2021/05/24 08:30:26;;;;;;;;;;;41.10;21.90;;;;;;5070941;28;19917;-70
2021/05/24 08:32:52;;;;;;;;;;;41.10;22.30;;;;;;5069465;28;19916;-71
2021/05/24 08:35:18;;;;;;;;;;;41.50;22.30;;;;;;5058850;28;19935;-71
2021/05/24 08:37:43;;;;;;;;;;;42.10;22.30;;;;;;5050994;28;19921;-71
2021/05/24 08:40:09;;;;;;;;;;;42.50;21.90;;;;;;5050484;28;19917;-73
2021/05/24 08:42:38;;;;;;;;;;;42.70;22.00;;;;;;5050949;28;20018;-71
2021/05/24 08:45:05;;;;;;;;;;;43.40;22.10;;;;;;5049403;28;19917;-72
2021/05/24 08:47:31;;;;;;;;;;;43.60;21.50;;;;;;5051014;28;19931;-70
2021/05/24 08:49:57;;;;;;;;;;;43.30;21.10;;;;;;5050875;28;20024;-72
2021/05/24 08:52:23;;;;;;;;;;;43.30;21.50;;;;;;5050979;28;19960;-71
2021/05/24 08:54:49;;;;;;;;;;;43.90;21.50;;;;;;5048693;28;20006;-72
2021/05/24 08:57:14;;;;;;;;;;;44.20;21.00;;;;;;5043882;28;20445;-71
2021/05/24 08:59:40;;;;;;;;;;;44.40;21.30;;;;;;5039956;28;19941;-72
2021/05/24 09:02:06;;;;;;;;;;;45.10;21.00;;;;;;5047597;28;19924;-71
2021/05/24 09:04:45;;;;;;;;;;;44.70;20.50;;;;;;5022794;28;19948;-71
2021/05/24 09:07:11;;;;;;;;;;;44.70;20.40;;;;;;5038591;28;20025;-73
2021/05/24 09:09:38;;;;;;;;;;;44.30;20.40;;;;;;5036665;28;19921;-72
2021/05/24 09:12:11;;;;;;;;;;;43.60;20.30;;;;;;5034396;28;19921;-71
2021/05/24 09:14:36;;;;;;;;;;;43.10;20.60;;;;;;5060310;28;19916;-72
2021/05/24 09:17:02;;;;;;;;;;;42.80;20.60;;;;;;5069382;28;19916;-72
2021/05/24 09:19:29;;;;;;;;;;;43.20;20.80;;;;;;5070691;28;19921;-71
2021/05/24 09:21:59;;;;;;;;;;;43.70;20.80;;;;;;5070212;28;20727;-72
2021/05/24 09:24:29;;;;;;;;;;;44.40;20.80;;;;;;5070435;28;19991;-71
2021/05/24 09:26:57;;;;;;;;;;;45.10;20.60;;;;;;5060268;28;20012;-71
2021/05/24 09:29:23;;;;;;;;;;;44.80;20.30;;;;;;5045930;28;20385;-70
2021/05/24 09:32:09;;;;;;;;;;;43.50;19.70;;;;;;5050850;28;19916;-71
2021/05/24 09:34:34;;;;;;;;;;;41.80;20.20;;;;;;5049152;28;19917;-70
2021/05/24 09:37:00;;;;;;;;;;;42.10;21.10;;;;;;5065890;28;19917;-71
2021/05/24 09:39:30;;;;;;;;;;;43.40;21.00;;;;;;5050370;28;19964;-70
2021/05/24 09:42:00;;;;;;;;;;;44.10;20.50;;;;;;5050547;28;19921;-70
2021/05/24 09:44:27;;;;;;;;;;;44.50;20.20;;;;;;5052035;28;19952;-71
2021/05/24 09:46:53;;;;;;;;;;;44.90;20.20;;;;;;5052259;28;19964;-71
2021/05/24 09:49:22;;;;;;;;;;;45.40;20.30;;;;;;5036120;28;19964;-71
2021/05/24 09:51:47;;;;;;;;;;;46.40;20.20;;;;;;5053506;28;19916;-72
2021/05/24 09:54:13;;;;;;;;;;;46.90;19.90;;;;;;5052996;28;19923;-71
2021/05/24 09:56:44;;;;;;;;;;;47.20;19.70;;;;;;5053385;28;20657;-71
2021/05/24 09:59:14;;;;;;;;;;;47.40;19.30;;;;;;5050918;28;19944;-71
2021/05/24 10:01:47;;;;;;;;;;;46.80;19.10;;;;;;5069157;28;19925;-71
2021/05/24 10:04:21;;;;;;;;;;;46.60;19.40;;;;;;5052337;28;19921;-71
2021/05/24 10:06:47;;;;;;;;;;;46.60;19.20;;;;;;5053522;28;20377;-71
2021/05/24 10:09:13;;;;;;;;;;;44.50;18.70;;;;;;5051901;28;19960;-71
2021/05/24 10:11:42;;;;;;;;;;;43.90;19.60;;;;;;5053470;28;19929;-71
2021/05/24 10:14:07;;;;;;;;;;;44.70;19.80;;;;;;5052593;28;19916;-72
2021/05/24 10:16:37;;;;;;;;;;;45.40;19.70;;;;;;5035287;28;19923;-71
2021/05/24 10:19:03;;;;;;;;;;;46.10;19.40;;;;;;5053603;28;19921;-71
2021/05/24 10:21:29;;;;;;;;;;;45.90;19.20;;;;;;5035181;28;19946;-72
2021/05/24 10:23:55;;;;;;;;;;;45.60;19.30;;;;;;5052471;28;19920;-72
2021/05/24 10:26:21;;;;;;;;;;;45.90;18.80;;;;;;5053047;28;19948;-70
2021/05/24 10:28:48;;;;;;;;;;;45.90;18.90;;;;;;5067713;28;20492;-72
2021/05/24 10:31:18;;;;;;;;;;;46.20;19.20;;;;;;5052821;28;19959;-70
2021/05/24 10:33:44;;;;;;;;;;;46.90;19.00;;;;;;5066786;28;19948;-71
2021/05/24 10:36:18;;;;;;;;;;;46.20;18.50;;;;;;5053141;28;20323;-71
2021/05/24 10:38:59;;;;;;;;;;;46.40;18.80;;;;;;5052796;28;19921;-71
2021/05/24 10:41:39;;;;;;;;;;;46.70;19.00;;;;;;5052432;28;20340;-71
2021/05/24 10:44:08;;;;;;;;;;;47.50;19.10;;;;;;5050389;28;19964;-70
2021/05/24 10:46:35;;;;;;;;;;;48.30;18.70;;;;;;5052593;28;20297;-70
2021/05/24 10:49:03;;;;;;;;;;;47.90;18.40;;;;;;5052749;28;19921;-71
2021/05/24 10:51:47;;;;;;;;;;;46.00;18.40;;;;;;5052131;28;19917;-72
2021/05/24 10:54:13;;;;;;;;;;;45.40;18.70;;;;;;5051644;28;19916;-70
2021/05/24 10:56:44;;;;;;;;;;;43.10;18.10;;;;;;5051247;28;20338;-70
2021/05/24 10:59:28;;;;;;;;;;;39.70;18.00;;;;;;5052423;28;19927;-69
2021/05/24 11:01:57;;;;;;;;;;;35.90;18.80;;;;;;5050939;28;19924;-69
2021/05/24 11:04:43;;;;;;;;;;;35.20;21.60;;;;;;5051419;28;20373;-69
2021/05/24 11:07:22;;;;;;;;;;;37.80;21.30;;;;;;5052250;28;19931;-69
2021/05/24 11:09:48;;;;;;;;;;;39.40;20.20;;;;;;5052251;28;19952;-71
2021/05/24 11:12:13;;;;;;;;;;;38.60;20.00;;;;;;5052001;28;19975;-72
2021/05/24 11:14:58;;;;;;;;;;;40.10;20.50;;;;;;5049730;28;19940;-70
2021/05/24 11:17:23;;;;;;;;;;;41.70;20.20;;;;;;5051892;28;19917;-70
2021/05/24 11:19:49;;;;;;;;;;;43.40;20.00;;;;;;5050693;28;20003;-71
2021/05/24 11:22:41;;;;;;;;;;;45.20;19.70;;;;;;5051742;28;19943;-70
2021/05/24 11:25:49;;;;;;;;;;;46.00;18.70;;;;;;5051265;28;20344;-70
2021/05/24 11:28:12;;;;;;;;;;;43.90;18.00;;;;;;5051356;28;19940;-70
2021/05/24 11:30:37;;;;;;;;;;;40.10;18.50;;;;;;5050189;28;19917;-70
2021/05/24 11:33:03;;;;;;;;;;;39.10;19.40;;;;;;5050624;28;20426;-70
2021/05/24 11:35:28;;;;;;;;;;;37.50;19.10;;;;;;5051125;28;19917;-70
2021/05/24 11:37:54;;;;;;;;;;;35.00;19.60;;;;;;5051328;28;19935;-69
2021/05/24 11:40:20;;;;;;;;;;;34.20;20.90;;;;;;5050555;28;19931;-69
2021/05/24 11:42:45;;;;;;;;;;;35.40;21.40;;;;;;5050429;28;20372;-69
2021/05/24 11:45:18;;;;;;;;;;;36.60;20.70;;;;;;5051050;28;19923;-69
2021/05/24 11:47:43;;;;;;;;;;;36.90;20.80;;;;;;5052014;28;19917;-69
2021/05/24 11:50:09;;;;;;;;;;;36.40;20.10;;;;;;5051200;28;20004;-69
2021/05/24 11:52:36;;;;;;;;;;;34.60;19.70;;;;;;5049395;28;20039;-68
2021/05/24 11:55:03;;;;;;;;;;;33.10;20.70;;;;;;5051010;28;19917;-70
2021/05/24 11:57:32;;;;;;;;;;;33.20;21.30;;;;;;5043855;28;19917;-71
2021/05/24 11:59:58;;;;;;;;;;;33.90;21.40;;;;;;5042020;28;20337;-70
2021/05/24 12:02:23;;;;;;;;;;;34.20;21.10;;;;;;5039564;28;19917;-69
2021/05/24 12:04:49;;;;;;;;;;;34.00;21.10;;;;;;5038151;28;19917;-70
2021/05/24 12:07:15;;;;;;;;;;;33.60;20.80;;;;;;5041275;28;19921;-68
2021/05/24 12:09:42;;;;;;;;;;;33.10;20.90;;;;;;5038540;28;20267;-70
2021/05/24 12:12:09;;;;;;;;;;;32.40;21.10;;;;;;5039976;28;19917;-69
2021/05/24 12:14:36;;;;;;;;;;;31.90;21.30;;;;;;5037435;28;19925;-70
2021/05/24 12:17:11;;;;;;;;;;;31.60;21.40;;;;;;5037560;28;19917;-70
2021/05/24 12:19:38;;;;;;;;;;;31.10;21.80;;;;;;5035321;28;20432;-68
2021/05/24 12:22:08;;;;;;;;;;;31.00;22.40;;;;;;5044324;28;19955;-68
2021/05/24 12:24:34;;;;;;;;;;;30.80;21.80;;;;;;5040110;28;19956;-69
2021/05/24 12:27:01;;;;;;;;;;;30.00;21.50;;;;;;5038680;28;19917;-68
2021/05/24 12:29:31;;;;;;;;;;;28.80;21.90;;;;;;5030307;28;20038;-63
2021/05/24 12:31:58;;;;;;;;;;;28.00;22.40;;;;;;5030924;28;19996;-65
2021/05/24 12:34:25;;;;;;;;;;;27.60;22.70;;;;;;5030402;28;19913;-65
2021/05/24 12:36:56;;;;;;;;;;;27.50;23.20;;;;;;5030813;28;19917;-64
2021/05/24 12:39:23;;;;;;;;;;;27.60;23.40;;;;;;5030623;28;19922;-65
2021/05/24 12:41:50;;;;;;;;;;;28.00;23.50;;;;;;5030942;28;19921;-64
2021/05/24 12:44:23;;;;;;;;;;;27.90;23.10;;;;;;5030450;28;19917;-65
2021/05/24 12:46:51;;;;;;;;;;;27.60;23.30;;;;;;5029706;28;19921;-65
2021/05/24 12:49:20;;;;;;;;;;;27.30;23.40;;;;;;5013269;28;19917;-65
2021/05/24 12:51:54;;;;;;;;;;;27.00;23.40;;;;;;5013385;28;20432;-66
2021/05/24 12:54:20;;;;;;;;;;;26.90;23.60;;;;;;5030202;28;20563;-65
2021/05/24 12:56:46;;;;;;;;;;;27.00;23.80;;;;;;5030286;28;20020;-65
2021/05/24 12:59:16;;;;;;;;;;;26.90;23.70;;;;;;5029558;28;20012;-66
2021/05/24 13:01:42;;;;;;;;;;;26.60;23.90;;;;;;5030182;28;19944;-65
2021/05/24 13:04:07;;;;;;;;;;;26.30;23.80;;;;;;5028197;28;19917;-64
2021/05/24 13:06:34;;;;;;;;;;;25.90;23.90;;;;;;5029321;28;19964;-65
2021/05/24 13:09:04;;;;;;;;;;;25.60;24.20;;;;;;5026972;28;20416;-66
2021/05/24 13:11:49;;;;;;;;;;;25.10;24.40;;;;;;5030527;28;19921;-64
2021/05/24 13:14:27;;;;;;;;;;;24.60;24.70;;;;;;5029714;28;20351;-67
2021/05/24 13:17:08;;;;;;;;;;;24.30;25.20;;;;;;5031032;28;19917;-65
2021/05/24 13:19:53;;;;;;;;;;;24.30;25.50;;;;;;5031009;28;20016;-64
2021/05/24 13:30:40;;;;;;;;;;;24.50;26.20;;;;;;5032883;28;19949;-64
2021/05/24 13:33:24;;;;;;;;;;;24.50;26.10;;;;;;5033172;28;19963;-65
2021/05/24 13:35:49;;;;;;;;;;;24.70;26.30;;;;;;5032748;28;19917;-64
2021/05/24 13:38:15;;;;;;;;;;;24.80;26.10;;;;;;5033966;28;19927;-64
2021/05/24 13:40:41;;;;;;;;;;;24.90;26.20;;;;;;5033889;28;19917;-63
2021/05/24 13:43:06;;;;;;;;;;;25.00;26.20;;;;;;5033172;28;20301;-64
2021/05/24 13:45:32;;;;;;;;;;;24.90;26.10;;;;;;5034241;28;19917;-64
2021/05/24 13:47:57;;;;;;;;;;;24.80;26.20;;;;;;5032314;28;19917;-64
2021/05/24 13:50:23;;;;;;;;;;;24.80;26.50;;;;;;5033923;28;19917;-65
2021/05/24 13:52:48;;;;;;;;;;;24.70;26.40;;;;;;5032079;28;19988;-64
2021/05/24 13:55:14;;;;;;;;;;;24.50;26.40;;;;;;5032335;28;20012;-64
2021/05/24 13:57:40;;;;;;;;;;;24.20;26.40;;;;;;5032390;28;20032;-64
2021/05/24 14:00:06;;;;;;;;;;;24.00;26.80;;;;;;5033443;28;20401;-65
2021/05/24 14:02:33;;;;;;;;;;;23.90;27.20;;;;;;5033633;28;19940;-66
2021/05/24 14:04:59;;;;;;;;;;;24.10;27.30;;;;;;5031820;28;20427;-64
2021/05/24 14:07:24;;;;;;;;;;;24.30;27.20;;;;;;5033372;28;19917;-64
2021/05/24 14:09:50;;;;;;;;;;;24.30;27.10;;;;;;5040450;28;20376;-64
2021/05/24 14:12:16;;;;;;;;;;;24.30;27.20;;;;;;5071897;28;19994;-64
2021/05/24 14:14:42;;;;;;;;;;;24.20;27.30;;;;;;5071762;28;20262;-64
2021/05/24 14:17:08;;;;;;;;;;;24.10;27.40;;;;;;5072230;28;19947;-65
2021/05/24 14:19:33;;;;;;;;;;;23.80;27.50;;;;;;5058413;28;19920;-64
2021/05/24 14:21:59;;;;;;;;;;;23.60;27.60;;;;;;5053366;28;20453;-64
2021/05/24 14:24:25;;;;;;;;;;;23.40;28.00;;;;;;5052502;28;19920;-64
2021/05/24 14:26:50;;;;;;;;;;;23.30;28.20;;;;;;5052422;28;20377;-64
2021/05/24 14:29:17;;;;;;;;;;;23.40;28.40;;;;;;5053027;28;19944;-64